createdAt,value
2017-11-18T00:01:53.782Z,43.22
2017-11-18T00:04:22.996Z,42.40
2017-11-18T00:06:51.079Z,41.50
2017-11-18T00:09:19.156Z,40.88
2017-11-18T00:11:47.243Z,44.22
2017-11-18T00:14:15.320Z,43.85
2017-11-18T00:16:44.914Z,46.72
2017-11-18T00:19:13.754Z,45.33
2017-11-18T00:21:42.955Z,45.90
2017-11-18T00:24:12.187Z,43.65
2017-11-18T00:26:40.262Z,44.28
2017-11-18T00:29:08.350Z,41.72
2017-11-18T00:31:36.432Z,42.83
2017-11-18T00:34:04.512Z,43.20
2017-11-18T00:36:32.578Z,43.72
2017-11-18T00:39:00.670Z,47.50
2017-11-18T00:41:29.517Z,43.35
2017-11-18T00:43:57.578Z,39.55
2017-11-18T00:46:25.659Z,39.58
2017-11-18T00:48:53.742Z,40.20
2017-11-18T00:51:21.828Z,40.58
2017-11-18T00:53:49.978Z,42.50
2017-11-18T00:56:18.038Z,40.22
2017-11-18T00:58:46.131Z,41.97
2017-11-18T01:01:14.192Z,38.97
2017-11-18T01:03:42.263Z,39.83
2017-11-18T01:06:10.347Z,40.60
2017-11-18T01:08:38.419Z,39.90
2017-11-18T01:11:06.499Z,38.65
2017-11-18T01:13:34.563Z,40.78
2017-11-18T01:16:02.631Z,42.05
2017-11-18T01:18:31.469Z,39.10
2017-11-18T01:21:00.297Z,39.35
2017-11-18T01:23:28.368Z,37.90
2017-11-18T01:25:56.415Z,36.08
2017-11-18T01:28:24.493Z,37.08
2017-11-18T01:30:52.559Z,41.30
2017-11-18T01:33:20.646Z,41.95
2017-11-18T01:35:48.710Z,37.00
2017-11-18T01:38:16.789Z,33.10
2017-11-18T01:40:45.240Z,37.50
2017-11-18T01:43:14.064Z,35.97
2017-11-18T01:45:42.151Z,36.88
2017-11-18T01:48:10.211Z,36.10
2017-11-18T01:50:38.278Z,35.90
2017-11-18T01:53:06.360Z,35.92
2017-11-18T01:55:34.414Z,35.53
2017-11-18T01:58:02.475Z,34.47
2017-11-18T02:00:30.571Z,32.88
2017-11-18T02:02:58.613Z,30.98
2017-11-18T02:05:26.738Z,29.77
2017-11-18T02:07:55.212Z,28.98
2017-11-18T02:10:23.287Z,32.50
2017-11-18T02:12:52.121Z,30.55
2017-11-18T02:15:20.981Z,28.23
2017-11-18T02:17:49.435Z,31.42
2017-11-18T02:20:17.535Z,34.50
2017-11-18T02:22:46.934Z,32.40
2017-11-18T02:25:14.899Z,31.83
2017-11-18T02:27:42.974Z,30.23
2017-11-18T02:30:11.043Z,31.23
2017-11-18T02:32:39.128Z,30.98
2017-11-18T02:35:07.236Z,32.03
2017-11-18T02:37:36.957Z,31.05
2017-11-18T02:40:04.961Z,31.08
2017-11-18T02:42:33.093Z,27.42
2017-11-18T02:45:01.105Z,30.20
2017-11-18T02:47:29.585Z,29.85
2017-11-18T02:49:57.644Z,26.55
2017-11-18T02:52:25.713Z,27.02
2017-11-18T02:54:53.797Z,30.88
2017-11-18T02:57:21.874Z,32.95
2017-11-18T02:59:51.292Z,30.48
2017-11-18T03:02:19.297Z,30.62
2017-11-18T03:04:47.766Z,27.42
2017-11-18T03:07:17.282Z,26.83
2017-11-18T03:09:45.761Z,25.45
2017-11-18T03:12:14.610Z,27.55
2017-11-18T03:14:42.689Z,28.35
2017-11-18T03:17:10.803Z,27.10
2017-11-18T03:19:39.625Z,28.00
2017-11-18T03:22:07.698Z,28.42
2017-11-18T03:24:36.188Z,25.20
2017-11-18T03:27:05.048Z,28.35
2017-11-18T03:29:33.172Z,26.75
2017-11-18T03:32:01.248Z,27.08
2017-11-18T03:34:29.317Z,24.00
2017-11-18T03:36:57.389Z,23.67
2017-11-18T03:39:25.473Z,22.73
2017-11-18T03:41:53.545Z,22.37
2017-11-18T03:44:21.615Z,23.45
2017-11-18T03:46:49.697Z,19.10
2017-11-18T03:49:17.784Z,20.92
2017-11-18T03:51:46.624Z,20.75
2017-11-18T03:54:15.855Z,21.40
2017-11-18T03:56:43.929Z,19.25
2017-11-18T03:59:12.001Z,17.65
2017-11-18T04:01:40.075Z,20.25
2017-11-18T04:04:08.931Z,18.12
2017-11-18T04:06:37.003Z,19.70
2017-11-18T04:09:05.083Z,18.25
2017-11-18T04:11:33.165Z,20.35
2017-11-18T04:14:01.223Z,19.35
2017-11-18T04:16:29.300Z,20.40
2017-11-18T04:18:58.144Z,19.55
2017-11-18T04:21:26.207Z,19.90
2017-11-18T04:23:54.326Z,19.90
2017-11-18T04:26:22.390Z,18.25
2017-11-18T04:28:50.450Z,19.75
2017-11-18T04:31:18.541Z,19.95
2017-11-18T04:33:47.008Z,21.60
2017-11-18T04:36:16.261Z,20.95
2017-11-18T04:38:45.689Z,19.30
2017-11-18T04:41:13.672Z,20.88
2017-11-18T04:43:41.752Z,19.98
2017-11-18T04:46:09.807Z,19.77
2017-11-18T04:48:37.901Z,17.90
2017-11-18T04:51:05.968Z,18.40
2017-11-18T04:53:34.058Z,19.60
2017-11-18T04:56:02.901Z,19.98
2017-11-18T04:58:31.736Z,18.05
2017-11-18T05:00:59.826Z,19.52
2017-11-18T05:03:29.041Z,19.55
2017-11-18T05:05:57.129Z,17.42
2017-11-18T05:08:25.191Z,19.52
2017-11-18T05:10:53.254Z,19.08
2017-11-18T05:13:21.729Z,18.20
2017-11-18T05:15:49.794Z,18.25
2017-11-18T05:18:17.864Z,20.33
2017-11-18T05:20:47.465Z,17.45
2017-11-18T05:23:15.537Z,19.37
2017-11-18T05:25:44.004Z,19.87
2017-11-18T05:28:12.076Z,20.52
2017-11-18T05:30:40.169Z,18.25
2017-11-18T05:33:08.233Z,17.73
2017-11-18T05:35:36.318Z,18.65
2017-11-18T05:38:04.377Z,17.92
2017-11-18T05:40:32.451Z,20.62
2017-11-18T05:43:00.524Z,19.85
2017-11-18T05:45:28.601Z,18.33
2017-11-18T05:47:56.676Z,19.02
2017-11-18T05:50:24.735Z,18.90
2017-11-18T05:52:54.188Z,19.37
2017-11-18T05:55:22.193Z,19.12
2017-11-18T05:57:50.265Z,18.90
2017-11-18T06:00:18.359Z,18.90
2017-11-18T06:02:46.856Z,19.08
2017-11-18T06:05:14.906Z,18.05
2017-11-18T06:07:43.742Z,19.50
2017-11-18T06:10:11.829Z,22.55
2017-11-18T06:12:39.932Z,20.85
2017-11-18T06:15:07.991Z,19.30
2017-11-18T06:17:36.073Z,20.05
2017-11-18T06:20:04.131Z,20.85
2017-11-18T06:22:32.217Z,19.42
2017-11-18T06:25:00.292Z,22.33
2017-11-18T06:27:28.772Z,21.98
2017-11-18T06:29:56.848Z,20.30
2017-11-18T06:32:24.916Z,22.62
2017-11-18T06:34:52.984Z,24.90
2017-11-18T06:37:21.054Z,25.65
2017-11-18T06:39:49.128Z,25.00
2017-11-18T06:42:17.221Z,23.55
2017-11-18T06:44:45.290Z,24.63
2017-11-18T06:47:13.461Z,25.40
2017-11-18T06:49:41.560Z,24.25
2017-11-18T06:52:10.023Z,22.08
2017-11-18T06:54:39.253Z,22.70
2017-11-18T06:57:07.322Z,22.35
2017-11-18T06:59:35.780Z,25.30
2017-11-18T07:02:05.003Z,24.02
2017-11-18T07:04:34.424Z,23.15
2017-11-18T07:07:02.932Z,23.45
2017-11-18T07:09:31.930Z,24.77
2017-11-18T07:12:01.363Z,26.23
2017-11-18T07:14:29.752Z,26.05
2017-11-18T07:16:57.837Z,25.90
2017-11-18T07:19:25.891Z,25.15
2017-11-18T07:21:54.002Z,25.30
2017-11-18T07:24:22.068Z,25.62
2017-11-18T07:26:50.152Z,26.30
2017-11-18T07:29:18.219Z,24.33
2017-11-18T07:31:47.048Z,27.17
2017-11-18T07:34:15.128Z,25.12
2017-11-18T07:36:43.210Z,28.70
2017-11-18T07:39:11.295Z,28.27
2017-11-18T07:41:40.254Z,28.35
2017-11-18T07:44:10.727Z,28.15
2017-11-18T07:46:40.316Z,24.67
2017-11-18T07:49:08.377Z,26.05
2017-11-18T07:51:36.468Z,25.45
2017-11-18T07:54:05.888Z,22.40
2017-11-18T07:56:35.243Z,22.20
2017-11-18T07:59:03.225Z,23.08
2017-11-18T08:01:32.079Z,20.98
2017-11-18T08:04:00.143Z,19.48
2017-11-18T08:06:28.227Z,17.42
2017-11-18T08:08:56.299Z,18.33
2017-11-18T08:11:24.373Z,18.00
2017-11-18T08:13:52.441Z,16.73
2017-11-18T08:16:20.537Z,18.10
2017-11-18T08:18:48.699Z,15.63
2017-11-18T08:21:16.770Z,17.25
2017-11-18T08:23:44.950Z,17.77
2017-11-18T08:26:13.424Z,17.50
2017-11-18T08:28:41.598Z,16.77
2017-11-18T08:31:11.031Z,17.80
2017-11-18T08:33:40.516Z,14.65
2017-11-18T08:36:15.983Z,14.40
2017-11-18T08:38:44.725Z,12.77
2017-11-18T08:41:12.800Z,17.10
2017-11-18T08:43:42.236Z,17.40
2017-11-18T08:46:11.567Z,16.27
2017-11-18T08:48:39.554Z,16.08
2017-11-18T08:51:07.663Z,15.18
2017-11-18T08:53:35.747Z,15.27
2017-11-18T08:56:03.895Z,15.57
2017-11-18T08:58:32.366Z,14.80
2017-11-18T09:01:00.455Z,12.77
2017-11-18T09:03:29.655Z,11.10
2017-11-18T09:05:59.288Z,11.60
2017-11-18T09:08:27.259Z,11.00
2017-11-18T09:10:56.123Z,11.57
2017-11-18T09:13:25.006Z,11.25
2017-11-18T09:15:53.845Z,13.00
2017-11-18T09:18:22.084Z,11.65
2017-11-18T09:20:50.155Z,12.48
2017-11-18T09:23:19.615Z,12.05
2017-11-18T09:25:48.004Z,13.30
2017-11-18T09:28:16.552Z,11.27
2017-11-18T09:30:44.602Z,11.40
2017-11-18T09:33:13.454Z,11.15
2017-11-18T09:35:42.292Z,12.02
2017-11-18T09:38:10.368Z,12.00
2017-11-18T09:40:38.447Z,12.52
2017-11-18T09:43:06.516Z,11.95
2017-11-18T09:45:34.595Z,11.48
2017-11-18T09:48:03.061Z,12.48
2017-11-18T09:50:31.136Z,15.93
2017-11-18T09:53:00.725Z,11.77
2017-11-18T09:55:29.185Z,12.27
2017-11-18T09:57:57.270Z,12.43
2017-11-18T10:00:26.101Z,11.10
2017-11-18T10:02:54.572Z,13.38
2017-11-18T10:05:22.637Z,14.43
2017-11-18T10:07:50.721Z,16.25
2017-11-18T10:10:18.788Z,13.02
2017-11-18T10:12:48.381Z,14.43
2017-11-18T10:15:17.589Z,14.48
2017-11-18T10:17:45.660Z,12.70
2017-11-18T10:20:14.136Z,14.05
2017-11-18T10:22:42.206Z,13.77
2017-11-18T10:25:10.285Z,14.80
2017-11-18T10:27:38.346Z,15.80
2017-11-18T10:30:06.419Z,14.63
2017-11-18T10:32:35.259Z,15.10
2017-11-18T10:35:04.095Z,14.27
2017-11-18T10:37:32.176Z,15.43
2017-11-18T10:40:00.322Z,15.18
2017-11-18T10:42:29.256Z,13.30
2017-11-18T10:44:57.341Z,13.57
2017-11-18T10:47:25.416Z,8.48
2017-11-18T10:49:54.993Z,9.82
2017-11-18T10:52:24.199Z,9.80
2017-11-18T10:54:52.324Z,10.32
2017-11-18T10:57:20.777Z,10.35
2017-11-18T10:59:49.602Z,10.50
2017-11-18T11:02:17.678Z,8.18
2017-11-18T11:04:45.730Z,9.82
2017-11-18T11:07:13.803Z,6.70
2017-11-18T11:09:42.263Z,7.72
2017-11-18T11:12:11.083Z,7.03
2017-11-18T11:14:39.164Z,8.25
2017-11-18T11:17:07.219Z,6.43
2017-11-18T11:19:35.271Z,6.15
2017-11-18T11:22:04.696Z,7.45
2017-11-18T11:24:33.057Z,6.40
2017-11-18T11:27:01.997Z,6.55
2017-11-18T11:29:30.778Z,5.43
2017-11-18T11:31:58.852Z,6.10
2017-11-18T11:34:26.908Z,6.03
2017-11-18T11:36:55.748Z,5.55
2017-11-18T11:39:23.816Z,7.72
2017-11-18T11:41:51.856Z,7.32
2017-11-18T11:44:19.915Z,7.55
2017-11-18T11:46:48.017Z,7.10
2017-11-18T11:49:16.043Z,6.15
2017-11-18T11:51:44.102Z,8.45
2017-11-18T11:54:12.927Z,7.45
2017-11-18T11:56:40.996Z,7.80
2017-11-18T11:59:09.063Z,6.15
2017-11-18T12:01:37.132Z,7.90
2017-11-18T12:04:05.197Z,6.93
2017-11-18T12:06:34.732Z,5.97
2017-11-18T12:09:04.339Z,6.68
2017-11-18T12:11:33.102Z,5.35
2017-11-18T12:14:01.173Z,4.25
2017-11-18T12:16:29.242Z,5.60
2017-11-18T12:18:57.344Z,5.45
2017-11-18T12:21:25.385Z,5.60
2017-11-18T12:23:54.575Z,5.07
2017-11-18T12:26:23.394Z,5.75
2017-11-18T12:28:51.463Z,5.18
2017-11-18T12:31:19.541Z,6.10
2017-11-18T12:33:47.612Z,5.70
2017-11-18T12:36:15.668Z,6.45
2017-11-18T12:38:43.715Z,4.97
2017-11-18T12:41:13.296Z,4.50
2017-11-18T12:43:42.119Z,6.43
2017-11-18T12:46:10.976Z,4.28
2017-11-18T12:48:39.010Z,6.55
2017-11-18T12:51:07.071Z,5.10
2017-11-18T12:53:35.127Z,4.65
2017-11-18T12:56:03.208Z,4.82
2017-11-18T12:58:31.659Z,6.30
2017-11-18T13:01:00.476Z,5.18
2017-11-18T13:03:28.519Z,4.93
2017-11-18T13:05:57.357Z,4.90
2017-11-18T13:08:26.176Z,4.82
2017-11-18T13:10:54.233Z,5.62
2017-11-18T13:13:22.316Z,5.28
2017-11-18T13:15:50.367Z,4.53
2017-11-18T13:18:18.424Z,4.90
2017-11-18T13:20:46.491Z,4.72
2017-11-18T13:23:14.538Z,5.05
2017-11-18T13:25:43.372Z,4.60
2017-11-18T13:28:11.428Z,3.83
2017-11-18T13:30:40.767Z,4.15
2017-11-18T13:33:08.834Z,4.12
2017-11-18T13:35:36.890Z,4.32
2017-11-18T13:38:05.332Z,5.25
2017-11-18T13:40:34.162Z,3.92
2017-11-18T13:43:02.232Z,4.57
2017-11-18T13:45:31.048Z,4.22
2017-11-18T13:47:59.111Z,4.65
2017-11-18T13:50:27.982Z,4.65
2017-11-18T13:52:59.316Z,4.07
2017-11-18T13:55:28.292Z,4.47
2017-11-18T13:57:56.352Z,12.32
2017-11-18T14:00:25.167Z,4.43
2017-11-18T14:02:53.627Z,4.43
2017-11-18T14:05:21.674Z,4.65
2017-11-18T14:07:49.749Z,4.60
2017-11-18T14:10:17.811Z,4.50
2017-11-18T14:12:46.246Z,5.43
2017-11-18T14:15:14.318Z,4.15
2017-11-18T14:17:42.792Z,5.50
2017-11-18T14:20:10.848Z,5.28
2017-11-18T14:22:39.664Z,5.50
2017-11-18T14:25:07.736Z,4.30
2017-11-18T14:27:35.800Z,5.68
2017-11-18T14:30:04.618Z,5.07
2017-11-18T14:32:32.695Z,6.05
2017-11-18T14:35:00.844Z,5.40
2017-11-18T14:37:29.664Z,5.95
2017-11-18T14:39:57.737Z,6.25
2017-11-18T14:42:25.798Z,5.20
2017-11-18T14:44:53.857Z,5.80
2017-11-18T14:47:21.948Z,5.87
2017-11-18T14:49:50.007Z,5.20
2017-11-18T14:52:18.176Z,5.70
2017-11-18T14:54:47.559Z,6.70
2017-11-18T14:57:16.937Z,6.90
2017-11-18T14:59:44.884Z,6.80
2017-11-18T15:02:12.965Z,6.30
2017-11-18T15:04:41.025Z,6.65
2017-11-18T15:07:09.082Z,6.72
2017-11-18T15:09:37.151Z,6.37
2017-11-18T15:12:05.201Z,7.65
2017-11-18T15:14:51.936Z,6.25
2017-11-18T15:17:26.429Z,5.95
2017-11-18T15:20:01.960Z,5.85
2017-11-18T15:25:37.375Z,5.30
2017-11-18T15:28:21.244Z,5.18
2017-11-18T15:30:55.915Z,6.53
2017-11-18T15:33:25.636Z,6.20
2017-11-18T15:35:54.133Z,5.43
2017-11-18T15:38:40.540Z,5.22
2017-11-18T15:41:08.632Z,5.65
2017-11-18T15:43:38.575Z,5.82
2017-11-18T15:46:06.632Z,5.40
2017-11-18T15:48:40.313Z,5.00
2017-11-18T15:51:11.881Z,5.80
2017-11-18T15:53:46.456Z,5.12
2017-11-18T15:56:20.304Z,5.07
2017-11-18T15:58:54.492Z,6.35
2017-11-18T16:01:28.195Z,4.28
2017-11-18T16:04:14.100Z,4.97
2017-11-18T16:06:42.158Z,4.57
2017-11-18T16:09:10.220Z,4.80
2017-11-18T16:11:38.664Z,4.85
2017-11-18T16:14:06.731Z,4.75
2017-11-18T16:16:35.551Z,4.68
2017-11-18T16:19:03.599Z,4.97
2017-11-18T16:21:31.670Z,5.18
2017-11-18T16:23:59.732Z,4.62
2017-11-18T16:26:29.282Z,4.45
2017-11-18T16:28:57.359Z,5.50
2017-11-18T16:31:25.443Z,4.68
2017-11-18T16:33:54.232Z,4.60
2017-11-18T16:36:22.296Z,4.45
2017-11-18T16:38:50.352Z,5.35
2017-11-18T16:41:18.421Z,4.93
2017-11-18T16:43:46.473Z,4.50
2017-11-18T16:46:14.539Z,5.00
2017-11-18T16:48:42.602Z,5.50
2017-11-18T16:51:11.039Z,4.45
2017-11-18T16:53:39.108Z,4.37
2017-11-18T16:56:07.161Z,5.37
2017-11-18T16:58:35.618Z,5.18
2017-11-18T17:01:03.683Z,4.93
2017-11-18T17:03:31.752Z,4.55
2017-11-18T17:05:59.808Z,4.35
2017-11-18T17:08:28.685Z,4.68
2017-11-18T17:10:57.840Z,4.57
2017-11-18T17:13:26.645Z,5.45
2017-11-18T17:15:55.467Z,4.93
2017-11-18T17:18:24.656Z,4.37
2017-11-18T17:20:52.747Z,6.78
2017-11-18T17:23:21.929Z,4.43
2017-11-18T17:25:49.974Z,4.05
2017-11-18T17:28:18.035Z,4.87
2017-11-18T17:30:46.088Z,3.85
2017-11-18T17:33:21.715Z,3.47
2017-11-18T17:35:50.547Z,5.37
2017-11-18T17:38:19.350Z,5.55
2017-11-18T17:40:47.410Z,4.12
2017-11-18T17:43:16.814Z,5.12
2017-11-18T17:45:45.188Z,6.30
2017-11-18T17:48:14.008Z,4.37
2017-11-18T17:50:42.083Z,4.43
2017-11-18T17:53:10.127Z,6.30
2017-11-18T17:55:38.183Z,4.43
2017-11-18T17:58:07.387Z,5.30
2017-11-18T18:00:35.443Z,5.18
2017-11-18T18:03:03.512Z,3.65
2017-11-18T18:05:31.580Z,3.90
2017-11-18T18:08:00.048Z,3.45
2017-11-18T18:10:28.873Z,5.35
2017-11-18T18:12:56.928Z,3.85
2017-11-18T18:15:26.515Z,4.43
2017-11-18T18:17:54.956Z,5.00
2017-11-18T18:20:23.019Z,4.18
2017-11-18T18:22:51.084Z,3.90
2017-11-18T18:25:19.135Z,4.50
2017-11-18T18:32:43.372Z,4.20
2017-11-18T18:35:12.208Z,4.10
2017-11-18T18:37:41.036Z,95.05
2017-11-18T18:40:09.149Z,12.65
2017-11-18T18:42:37.582Z,5.18
2017-11-18T18:45:05.671Z,6.00
2017-11-18T18:47:33.695Z,7.05
2017-11-18T18:50:02.528Z,7.55
2017-11-18T18:52:30.574Z,7.25
2017-11-18T18:54:59.016Z,5.35
2017-11-18T18:57:27.082Z,12.52
2017-11-18T18:59:55.213Z,16.55
2017-11-18T19:02:24.022Z,6.05
2017-11-18T19:04:52.085Z,5.32
2017-11-18T19:07:20.133Z,4.97
2017-11-18T19:09:48.196Z,7.10
2017-11-18T19:12:16.251Z,7.60
2017-11-18T19:14:45.086Z,4.87
2017-11-18T19:17:13.149Z,6.43
2017-11-18T19:19:41.216Z,6.60
2017-11-18T19:22:09.274Z,7.15
2017-11-18T19:24:37.341Z,7.20
2017-11-18T19:27:05.788Z,7.00
2017-11-18T19:29:34.240Z,6.80
2017-11-18T19:32:03.072Z,6.22
2017-11-18T19:34:31.917Z,5.93
2017-11-18T19:37:00.725Z,6.62
2017-11-18T19:39:28.798Z,5.37
2017-11-18T19:41:56.958Z,6.28
2017-11-18T19:44:25.360Z,6.05
2017-11-18T19:46:53.424Z,5.55
2017-11-18T19:49:21.487Z,6.47
2017-11-18T19:51:49.572Z,6.50
2017-11-18T19:54:17.631Z,7.20
2017-11-18T19:56:45.688Z,7.57
2017-11-18T19:59:13.766Z,7.07
2017-11-18T20:01:41.828Z,7.60
2017-11-18T20:04:09.895Z,9.45
2017-11-18T20:06:37.955Z,12.43
2017-11-18T20:09:06.425Z,9.40
2017-11-18T20:11:35.271Z,9.38
2017-11-18T20:14:03.346Z,8.65
2017-11-18T20:16:31.427Z,10.80
2017-11-18T20:18:59.510Z,7.35
2017-11-18T20:21:27.570Z,7.70
2017-11-18T20:23:55.644Z,7.72
2017-11-18T20:26:23.728Z,7.07
2017-11-18T20:28:51.793Z,9.07
2017-11-18T20:31:19.888Z,10.30
2017-11-18T20:33:47.960Z,8.93
2017-11-18T20:36:16.430Z,10.70
2017-11-18T20:38:45.256Z,8.80
2017-11-18T20:41:13.324Z,7.28
2017-11-18T20:43:41.396Z,7.87
2017-11-18T20:46:09.472Z,10.13
2017-11-18T20:48:37.524Z,8.40
2017-11-18T20:51:05.979Z,8.82
2017-11-18T20:53:34.917Z,7.85
2017-11-18T20:56:02.979Z,8.20
2017-11-18T20:58:31.037Z,8.05
2017-11-18T21:00:59.120Z,8.02
2017-11-18T21:03:27.962Z,8.15
2017-11-18T21:05:56.017Z,8.60
2017-11-18T21:08:25.052Z,10.38
2017-11-18T21:10:53.147Z,10.40
2017-11-18T21:13:21.361Z,9.80
2017-11-18T21:15:49.437Z,8.25
2017-11-18T21:18:17.500Z,8.98
2017-11-18T21:20:46.334Z,8.52
2017-11-18T21:23:15.173Z,9.68
2017-11-18T21:25:44.409Z,9.57
2017-11-18T21:28:12.474Z,10.35
2017-11-18T21:30:40.563Z,9.25
2017-11-18T21:33:09.003Z,8.35
2017-11-18T21:35:37.486Z,8.40
2017-11-18T21:38:05.956Z,7.62
2017-11-18T21:40:34.016Z,7.90
2017-11-18T21:43:02.109Z,10.50
2017-11-18T21:45:30.176Z,7.90
2017-11-18T21:47:58.274Z,8.73
2017-11-18T21:50:26.361Z,8.20
2017-11-18T21:52:54.811Z,8.93
2017-11-18T21:57:51.540Z,8.55
2017-11-18T22:00:19.627Z,10.27
2017-11-18T22:02:47.689Z,10.02
2017-11-18T22:05:15.770Z,9.98
2017-11-18T22:07:43.845Z,10.35
2017-11-18T22:10:11.932Z,10.00
2017-11-18T22:12:39.995Z,9.90
2017-11-18T22:15:08.080Z,11.12
2017-11-18T22:17:36.165Z,11.25
2017-11-18T22:20:04.227Z,11.35
2017-11-18T22:22:32.709Z,12.10
2017-11-18T22:25:00.772Z,11.93
2017-11-18T22:27:28.856Z,11.95
2017-11-18T22:30:04.128Z,12.18
2017-11-18T22:32:32.994Z,11.23
2017-11-18T22:35:01.838Z,12.77
2017-11-18T22:37:29.911Z,11.32
2017-11-18T22:39:57.976Z,10.77
2017-11-18T22:42:26.443Z,12.20
2017-11-18T22:44:54.572Z,11.45
2017-11-18T22:47:22.643Z,12.98
2017-11-18T22:49:50.731Z,12.23
2017-11-18T22:52:18.800Z,11.45
2017-11-18T22:54:46.885Z,11.50
2017-11-18T22:57:14.989Z,12.02
2017-11-18T22:59:43.091Z,13.13
2017-11-18T23:02:11.151Z,12.35
2017-11-18T23:04:39.230Z,12.50
2017-11-18T23:07:07.305Z,12.65
2017-11-18T23:09:35.756Z,12.98
2017-11-18T23:12:03.839Z,13.30
2017-11-18T23:14:32.305Z,13.23
2017-11-18T23:17:00.392Z,11.95
2017-11-18T23:19:28.468Z,12.05
2017-11-18T23:21:56.544Z,11.85
2017-11-18T23:24:24.653Z,12.55
2017-11-18T23:26:52.724Z,12.40
2017-11-18T23:29:20.794Z,11.23
2017-11-18T23:31:48.882Z,11.02
2017-11-18T23:34:17.712Z,11.55
2017-11-18T23:36:45.786Z,11.15
2017-11-18T23:39:13.849Z,10.88
2017-11-18T23:41:41.936Z,10.02
2017-11-18T23:44:10.001Z,11.05
2017-11-18T23:46:38.086Z,11.63
2017-11-18T23:49:06.157Z,11.55
2017-11-18T23:51:34.254Z,10.93
2017-11-18T23:54:02.320Z,10.73
2017-11-18T23:56:30.378Z,11.00
2017-11-18T23:58:58.456Z,11.48
